Mountain Home, Wyoming
Current Conditions -  °F | °C
As of 4:53 AM on Friday 28 Nov 2014 (Local Time) from KLAR Reporting Station
Clear Clear  
Wind Chill: 33°   Ceiling: Unl
Heat Index: 38°   Visibility: 10mi
Dew Point: 14°   Wind: 6mph
Humidity: 38%   Direction: 220°SW
Pressure: 30.04"   Gusts: NA
Location:  41.2601°N, 105.565°W
Report Text: KLAR 281153Z AUTO 22005KT 10SM CLR 03/M10 A3004 RMK AO2 SLP134 T00331100 10067 20017 56016
Loading
Personal Weather Stations






























Interactive Weather Map New forecast layout! Learn more

10-Day Weather Forecast

Advertisements
Track Severe Weather on mobile